createdAt,value
2023-12-31T00:02:13.699Z,6.90
2023-12-31T00:04:40.223Z,6.93
2023-12-31T00:07:06.623Z,7.15
2023-12-31T00:09:33.098Z,7.35
2023-12-31T00:11:59.854Z,7.53
2023-12-31T00:14:26.515Z,7.20
2023-12-31T00:16:53.067Z,6.95
2023-12-31T00:19:19.498Z,7.22
2023-12-31T00:21:46.211Z,7.38
2023-12-31T00:24:13.072Z,7.38
2023-12-31T00:26:39.350Z,8.13
2023-12-31T00:29:05.881Z,7.45
2023-12-31T00:31:32.358Z,8.07
2023-12-31T00:33:58.779Z,8.60
2023-12-31T00:36:26.202Z,9.07
2023-12-31T00:38:53.939Z,9.02
2023-12-31T00:41:20.560Z,10.13
2023-12-31T00:43:46.887Z,10.20
2023-12-31T00:46:14.740Z,10.88
2023-12-31T00:48:41.211Z,10.65
2023-12-31T00:51:08.010Z,11.30
2023-12-31T00:53:34.417Z,11.32
2023-12-31T00:56:00.707Z,11.38
2023-12-31T00:58:27.065Z,11.70
2023-12-31T01:00:53.411Z,11.80
2023-12-31T01:03:20.456Z,12.13
2023-12-31T01:05:47.181Z,12.38
2023-12-31T01:08:13.511Z,12.60
2023-12-31T01:10:39.834Z,12.90
2023-12-31T01:13:06.498Z,12.85
2023-12-31T01:15:33.216Z,11.88
2023-12-31T01:18:00.092Z,12.68
2023-12-31T01:20:26.465Z,12.27
2023-12-31T01:22:52.875Z,12.27
2023-12-31T01:25:19.528Z,13.13
2023-12-31T01:27:45.964Z,12.63
2023-12-31T01:30:13.239Z,13.43
2023-12-31T01:32:39.702Z,12.30
2023-12-31T01:35:06.144Z,12.68
2023-12-31T01:37:32.715Z,12.13
2023-12-31T01:39:59.059Z,13.20
2023-12-31T01:42:25.364Z,12.95
2023-12-31T01:44:51.708Z,12.48
2023-12-31T01:47:19.661Z,12.93
2023-12-31T01:49:46.033Z,13.48
2023-12-31T01:52:13.459Z,13.20
2023-12-31T01:54:39.849Z,12.10
2023-12-31T01:57:06.561Z,13.48
2023-12-31T01:59:32.976Z,13.48
2023-12-31T02:01:59.748Z,13.50
2023-12-31T02:04:32.585Z,13.23
2023-12-31T02:06:59.955Z,12.75
2023-12-31T02:09:26.481Z,13.88
2023-12-31T02:11:52.759Z,13.75
2023-12-31T02:14:19.272Z,14.38
2023-12-31T02:16:45.597Z,13.55
2023-12-31T02:19:12.002Z,13.95
2023-12-31T02:21:38.368Z,13.10
2023-12-31T02:24:04.880Z,13.50
2023-12-31T02:26:32.877Z,14.10
2023-12-31T02:28:59.225Z,14.05
2023-12-31T02:31:25.617Z,13.65
2023-12-31T02:33:52.069Z,13.70
2023-12-31T02:36:18.479Z,12.93
2023-12-31T02:38:44.951Z,13.60
2023-12-31T02:41:11.269Z,12.90
2023-12-31T02:43:38.102Z,13.25
2023-12-31T02:46:04.668Z,12.93
2023-12-31T02:48:31.222Z,12.55
2023-12-31T02:50:57.757Z,13.43
2023-12-31T02:53:24.039Z,13.25
2023-12-31T02:55:50.464Z,12.98
2023-12-31T02:58:16.832Z,13.38
2023-12-31T03:00:43.276Z,13.20
2023-12-31T03:03:09.747Z,14.75
2023-12-31T03:05:36.433Z,14.63
2023-12-31T03:08:02.897Z,14.32
2023-12-31T03:10:29.364Z,14.20
2023-12-31T03:12:55.818Z,14.88
2023-12-31T03:15:22.832Z,14.45
2023-12-31T03:17:49.363Z,14.45
2023-12-31T03:20:15.785Z,13.23
2023-12-31T03:22:43.079Z,14.43
2023-12-31T03:25:09.897Z,14.93
2023-12-31T03:27:36.461Z,14.52
2023-12-31T03:30:03.319Z,15.20
2023-12-31T03:32:29.734Z,14.40
2023-12-31T03:34:56.468Z,14.07
2023-12-31T03:37:22.831Z,14.75
2023-12-31T03:39:51.802Z,15.13
2023-12-31T03:42:18.129Z,14.50
2023-12-31T03:44:44.594Z,13.40
2023-12-31T03:47:10.941Z,14.15
2023-12-31T03:49:37.503Z,14.25
2023-12-31T03:52:04.240Z,13.48
2023-12-31T03:54:30.645Z,14.02
2023-12-31T03:56:57.166Z,14.77
2023-12-31T03:59:23.696Z,13.40
2023-12-31T04:01:57.138Z,13.48
2023-12-31T04:04:24.173Z,13.00
2023-12-31T04:06:50.653Z,13.32
2023-12-31T04:09:17.392Z,12.48
2023-12-31T04:11:43.720Z,11.88
2023-12-31T04:14:10.060Z,11.88
2023-12-31T04:16:36.533Z,11.63
2023-12-31T04:19:03.188Z,11.75
2023-12-31T04:21:29.533Z,11.98
2023-12-31T04:23:56.115Z,11.20
2023-12-31T04:26:22.440Z,11.27
2023-12-31T04:28:48.777Z,11.02
2023-12-31T04:31:16.152Z,11.45
2023-12-31T04:33:42.524Z,9.95
2023-12-31T04:36:08.885Z,11.68
2023-12-31T04:38:35.376Z,10.43
2023-12-31T04:41:01.751Z,10.60
2023-12-31T04:43:28.313Z,11.13
2023-12-31T04:45:54.704Z,10.50
2023-12-31T04:48:21.069Z,10.85
2023-12-31T04:50:47.617Z,10.85
2023-12-31T04:53:16.333Z,10.27
2023-12-31T04:55:42.902Z,10.50
2023-12-31T04:58:09.449Z,10.68
2023-12-31T05:00:35.855Z,10.55
2023-12-31T05:03:02.336Z,10.80
2023-12-31T05:05:28.821Z,10.10
2023-12-31T05:07:55.176Z,10.93
2023-12-31T05:10:21.596Z,10.65
2023-12-31T05:12:48.154Z,10.43
2023-12-31T05:15:14.706Z,9.85
2023-12-31T05:17:41.119Z,10.05
2023-12-31T05:20:08.257Z,10.65
2023-12-31T05:22:34.683Z,9.80
2023-12-31T05:25:01.130Z,10.57
2023-12-31T05:27:27.505Z,9.70
2023-12-31T05:29:53.877Z,9.57
2023-12-31T05:32:21.528Z,10.05
2023-12-31T05:34:48.060Z,9.60
2023-12-31T05:37:14.454Z,9.30
2023-12-31T05:39:40.811Z,9.98
2023-12-31T05:42:07.442Z,9.73
2023-12-31T05:44:33.805Z,9.75
2023-12-31T05:47:00.589Z,9.90
2023-12-31T05:49:27.183Z,9.50
2023-12-31T05:51:53.563Z,9.77
2023-12-31T05:54:19.872Z,9.50
2023-12-31T05:56:46.195Z,10.60
2023-12-31T05:59:12.658Z,9.07
2023-12-31T06:01:38.997Z,9.50
2023-12-31T06:04:06.138Z,9.43
2023-12-31T06:06:36.353Z,9.55
2023-12-31T06:09:02.829Z,9.38
2023-12-31T06:11:29.164Z,8.80
2023-12-31T06:13:55.790Z,9.55
2023-12-31T06:16:22.649Z,8.77
2023-12-31T06:18:49.485Z,8.63
2023-12-31T06:21:15.867Z,8.48
2023-12-31T06:23:42.206Z,8.55
2023-12-31T06:26:08.548Z,8.15
2023-12-31T06:28:35.025Z,8.18
2023-12-31T06:31:01.503Z,7.70
2023-12-31T06:33:28.060Z,8.80
2023-12-31T06:35:54.559Z,8.05
2023-12-31T06:38:20.894Z,7.13
2023-12-31T06:40:47.286Z,7.68
2023-12-31T06:43:14.021Z,7.78
2023-12-31T06:45:41.147Z,7.45
2023-12-31T06:48:07.875Z,7.22
2023-12-31T06:50:34.995Z,6.82
2023-12-31T06:53:01.793Z,7.07
2023-12-31T06:55:28.491Z,7.18
2023-12-31T06:57:54.973Z,7.30
2023-12-31T07:00:23.477Z,6.80
2023-12-31T07:02:50.069Z,7.10
2023-12-31T07:05:16.775Z,7.28
2023-12-31T07:07:43.322Z,6.45
2023-12-31T07:10:09.908Z,7.07
2023-12-31T07:12:37.291Z,5.97
2023-12-31T07:15:03.852Z,6.30
2023-12-31T07:17:31.016Z,6.15
2023-12-31T07:19:57.665Z,6.38
2023-12-31T07:22:24.054Z,6.00
2023-12-31T07:24:50.371Z,6.07
2023-12-31T07:27:16.937Z,5.80
2023-12-31T07:29:43.379Z,5.43
2023-12-31T07:32:09.736Z,5.60
2023-12-31T07:34:36.455Z,6.10
2023-12-31T07:37:02.841Z,5.32
2023-12-31T07:39:29.181Z,6.22
2023-12-31T07:41:55.512Z,5.85
2023-12-31T07:44:22.069Z,6.03
2023-12-31T07:46:48.493Z,6.28
2023-12-31T07:49:14.981Z,5.97
2023-12-31T07:51:41.387Z,6.03
2023-12-31T07:54:07.756Z,6.63
2023-12-31T07:56:34.107Z,5.88
2023-12-31T07:59:00.456Z,5.90
2023-12-31T08:01:26.803Z,6.75
2023-12-31T08:03:53.359Z,6.57
2023-12-31T08:06:19.909Z,6.03
2023-12-31T08:08:46.625Z,6.43
2023-12-31T08:11:13.897Z,6.22
2023-12-31T08:13:40.264Z,7.20
2023-12-31T08:16:06.967Z,5.88
2023-12-31T08:18:34.453Z,4.00
2023-12-31T08:21:01.137Z,3.40
2023-12-31T08:23:27.480Z,3.25
2023-12-31T08:25:53.998Z,3.63
2023-12-31T08:28:20.348Z,3.17
2023-12-31T08:30:46.848Z,2.97
2023-12-31T08:33:13.318Z,2.97
2023-12-31T08:35:40.805Z,2.55
2023-12-31T08:38:07.251Z,2.60
2023-12-31T08:40:33.622Z,1.90
2023-12-31T08:43:00.280Z,1.73
2023-12-31T08:45:26.680Z,1.50
2023-12-31T08:47:53.966Z,1.20
2023-12-31T08:50:20.624Z,2.55
2023-12-31T08:52:47.860Z,2.35
2023-12-31T08:55:14.569Z,3.28
2023-12-31T08:57:43.267Z,1.55
2023-12-31T09:00:10.622Z,3.95
2023-12-31T09:02:37.087Z,3.75
2023-12-31T09:05:03.665Z,3.30
2023-12-31T09:07:30.250Z,7.75
2023-12-31T09:09:56.813Z,8.38
2023-12-31T09:12:23.188Z,4.15
2023-12-31T09:14:49.518Z,28.08
2023-12-31T09:17:15.924Z,20.48
2023-12-31T09:19:42.334Z,27.73
2023-12-31T09:22:08.904Z,16.10
2023-12-31T09:24:36.535Z,22.85
2023-12-31T09:27:03.301Z,25.67
2023-12-31T09:29:30.697Z,12.90
2023-12-31T09:31:57.142Z,2.03
2023-12-31T09:34:23.522Z,1.88
2023-12-31T09:36:51.224Z,1.98
2023-12-31T09:39:17.925Z,1.05
2023-12-31T09:41:45.510Z,1.20
2023-12-31T09:44:13.383Z,1.83
2023-12-31T09:46:40.539Z,1.58
2023-12-31T09:49:07.544Z,3.40
2023-12-31T09:51:34.548Z,3.10
2023-12-31T09:54:01.054Z,2.28
2023-12-31T09:56:29.020Z,2.15
2023-12-31T09:59:02.906Z,1.55
2023-12-31T10:01:34.737Z,2.45
2023-12-31T10:04:01.543Z,1.27
2023-12-31T10:06:30.220Z,1.30
2023-12-31T10:08:57.597Z,1.40
2023-12-31T10:11:23.900Z,1.50
2023-12-31T10:13:50.267Z,6.15
2023-12-31T10:16:16.745Z,6.00
2023-12-31T10:18:43.171Z,8.38
2023-12-31T10:21:10.842Z,6.40
2023-12-31T10:23:37.208Z,1.80
2023-12-31T10:26:04.151Z,1.33
2023-12-31T10:28:30.675Z,1.00
2023-12-31T10:30:57.420Z,1.45
2023-12-31T10:33:28.442Z,0.80
2023-12-31T10:36:05.623Z,0.63
2023-12-31T10:38:44.221Z,0.65
2023-12-31T10:41:11.373Z,0.73
2023-12-31T10:43:40.715Z,0.80
2023-12-31T10:46:08.605Z,0.70
2023-12-31T10:48:35.879Z,0.73
2023-12-31T10:51:06.555Z,0.70
2023-12-31T10:53:37.401Z,0.90
2023-12-31T10:56:04.778Z,0.70
2023-12-31T10:58:31.117Z,0.93
2023-12-31T11:00:57.782Z,0.80
2023-12-31T11:03:26.368Z,0.90
2023-12-31T11:05:52.725Z,0.98
2023-12-31T11:08:19.373Z,1.02
2023-12-31T11:10:47.045Z,1.02
2023-12-31T11:13:15.376Z,0.90
2023-12-31T11:15:42.404Z,1.10
2023-12-31T11:18:10.037Z,1.30
2023-12-31T11:21:12.018Z,1.63
2023-12-31T11:23:58.050Z,1.27
2023-12-31T11:26:24.910Z,1.10
2023-12-31T11:28:51.609Z,1.40
2023-12-31T11:31:18.332Z,1.35
2023-12-31T11:33:45.493Z,1.58
2023-12-31T11:36:12.963Z,1.08
2023-12-31T11:38:51.467Z,1.30
2023-12-31T11:41:21.614Z,1.40
2023-12-31T11:43:48.290Z,1.58
2023-12-31T11:46:50.503Z,1.63
2023-12-31T11:49:17.840Z,1.70
2023-12-31T11:51:53.741Z,1.40
2023-12-31T11:54:24.005Z,2.35
2023-12-31T11:56:53.854Z,1.67
2023-12-31T11:59:20.326Z,1.92
2023-12-31T12:01:46.934Z,6.40
2023-12-31T12:04:13.362Z,10.85
2023-12-31T12:06:41.276Z,3.30
2023-12-31T12:09:07.590Z,4.88
2023-12-31T12:11:34.237Z,1.88
2023-12-31T12:14:01.636Z,2.45
2023-12-31T12:16:31.308Z,2.63
2023-12-31T12:18:58.612Z,1.95
2023-12-31T12:21:25.584Z,2.20
2023-12-31T12:23:52.190Z,1.90
2023-12-31T12:26:18.605Z,1.77
2023-12-31T12:28:47.515Z,2.15
2023-12-31T12:31:18.776Z,1.90
2023-12-31T12:33:45.794Z,2.10
2023-12-31T12:36:12.265Z,2.10
2023-12-31T12:38:38.727Z,1.80
2023-12-31T12:41:05.827Z,2.03
2023-12-31T12:43:32.433Z,1.60
2023-12-31T12:46:02.575Z,2.20
2023-12-31T12:48:28.949Z,1.80
2023-12-31T12:50:55.364Z,1.73
2023-12-31T12:53:21.660Z,1.90
2023-12-31T12:55:48.042Z,1.80
2023-12-31T12:58:14.326Z,1.63
2023-12-31T13:00:40.867Z,2.35
2023-12-31T13:03:07.515Z,2.17
2023-12-31T13:05:34.219Z,2.10
2023-12-31T13:08:00.675Z,2.58
2023-12-31T13:10:27.167Z,2.35
2023-12-31T13:12:53.779Z,2.58
2023-12-31T13:15:20.109Z,1.75
2023-12-31T13:17:46.699Z,2.30
2023-12-31T13:20:13.105Z,2.08
2023-12-31T13:22:39.471Z,2.13
2023-12-31T13:25:06.017Z,2.20
2023-12-31T13:27:32.333Z,2.33
2023-12-31T13:29:58.695Z,2.08
2023-12-31T13:32:25.189Z,2.30
2023-12-31T13:34:51.812Z,2.90
2023-12-31T13:37:18.173Z,2.10
2023-12-31T13:39:44.489Z,2.35
2023-12-31T13:42:11.138Z,2.28
2023-12-31T13:44:37.462Z,2.53
2023-12-31T13:47:04.964Z,2.45
2023-12-31T13:49:31.472Z,2.50
2023-12-31T13:51:57.879Z,2.30
2023-12-31T13:54:25.430Z,2.08
2023-12-31T13:56:52.854Z,2.28
2023-12-31T13:59:19.175Z,2.28
2023-12-31T14:01:45.618Z,2.10
2023-12-31T14:04:12.127Z,2.20
2023-12-31T14:06:40.163Z,2.60
2023-12-31T14:09:06.656Z,2.45
2023-12-31T14:11:32.994Z,2.53
2023-12-31T14:13:59.455Z,2.20
2023-12-31T14:16:26.626Z,2.22
2023-12-31T14:18:53.063Z,2.13
2023-12-31T14:21:20.037Z,2.45
2023-12-31T14:23:46.384Z,2.17
2023-12-31T14:26:13.745Z,2.28
2023-12-31T14:28:40.153Z,2.70
2023-12-31T14:31:06.957Z,2.30
2023-12-31T14:33:33.492Z,2.33
2023-12-31T14:36:00.082Z,2.40
2023-12-31T14:38:26.684Z,2.20
2023-12-31T14:40:53.068Z,2.17
2023-12-31T14:43:19.435Z,2.28
2023-12-31T14:45:45.934Z,2.10
2023-12-31T14:48:12.602Z,2.40
2023-12-31T14:50:39.526Z,2.40
2023-12-31T14:53:06.615Z,2.15
2023-12-31T14:55:33.312Z,2.40
2023-12-31T14:57:59.689Z,2.70
2023-12-31T15:00:26.096Z,2.35
2023-12-31T15:02:52.561Z,2.50
2023-12-31T15:05:19.293Z,2.17
2023-12-31T15:07:46.199Z,2.35
2023-12-31T15:10:12.771Z,2.60
2023-12-31T15:12:39.187Z,2.20
2023-12-31T15:15:05.612Z,2.63
2023-12-31T15:17:32.186Z,2.60
2023-12-31T15:19:58.674Z,2.25
2023-12-31T15:22:25.366Z,2.72
2023-12-31T15:24:52.096Z,2.28
2023-12-31T15:27:18.809Z,3.05
2023-12-31T15:29:48.285Z,2.20
2023-12-31T15:32:16.335Z,2.00
2023-12-31T15:34:42.794Z,2.70
2023-12-31T15:37:09.901Z,2.20
2023-12-31T15:39:36.775Z,2.40
2023-12-31T15:42:03.834Z,2.70
2023-12-31T15:44:30.135Z,2.13
2023-12-31T15:46:56.574Z,2.45
2023-12-31T15:49:22.978Z,2.50
2023-12-31T15:51:49.370Z,2.70
2023-12-31T15:54:15.685Z,2.30
2023-12-31T15:56:42.046Z,2.38
2023-12-31T15:59:08.395Z,2.67
2023-12-31T16:01:34.852Z,2.45
2023-12-31T16:04:01.225Z,2.20
2023-12-31T16:06:27.660Z,2.30
2023-12-31T16:08:53.955Z,2.40
2023-12-31T16:11:20.613Z,2.55
2023-12-31T16:13:47.091Z,2.65
2023-12-31T16:16:13.489Z,2.47
2023-12-31T16:18:39.967Z,2.30
2023-12-31T16:21:06.689Z,2.10
2023-12-31T16:23:33.054Z,2.30
2023-12-31T16:25:59.397Z,2.65
2023-12-31T16:28:25.910Z,2.65
2023-12-31T16:30:52.443Z,2.20
2023-12-31T16:33:19.141Z,2.35
2023-12-31T16:35:45.579Z,2.20
2023-12-31T16:38:12.125Z,2.30
2023-12-31T16:40:38.738Z,2.85
2023-12-31T16:43:09.291Z,2.35
2023-12-31T16:45:39.593Z,2.30
2023-12-31T16:48:07.374Z,2.40
2023-12-31T16:50:35.252Z,2.38
2023-12-31T16:53:01.637Z,2.50
2023-12-31T16:55:28.136Z,2.28
2023-12-31T16:57:54.679Z,2.80
2023-12-31T17:00:21.789Z,2.00
2023-12-31T17:02:48.140Z,2.00
2023-12-31T17:05:14.693Z,2.10
2023-12-31T17:07:41.376Z,2.38
2023-12-31T17:10:12.642Z,2.22
2023-12-31T17:12:39.679Z,3.58
2023-12-31T17:15:06.386Z,5.57
2023-12-31T17:17:32.842Z,5.70
2023-12-31T17:19:59.551Z,11.13
2023-12-31T17:22:25.931Z,3.78
2023-12-31T17:24:52.341Z,24.05
2023-12-31T17:27:18.626Z,44.72
2023-12-31T17:29:45.005Z,39.15
2023-12-31T17:32:11.720Z,28.77
2023-12-31T17:34:38.130Z,11.50
2023-12-31T17:37:06.226Z,24.08
2023-12-31T17:39:33.092Z,76.88
2023-12-31T17:41:59.419Z,35.45
2023-12-31T17:44:25.740Z,48.60
2023-12-31T17:46:52.062Z,40.95
2023-12-31T17:49:18.389Z,23.80
2023-12-31T17:51:44.724Z,50.08
2023-12-31T17:54:11.134Z,18.33
2023-12-31T17:56:38.076Z,25.38
2023-12-31T17:59:04.972Z,19.17
2023-12-31T18:01:31.454Z,42.40
2023-12-31T18:03:57.783Z,48.30
2023-12-31T18:06:24.102Z,47.00
2023-12-31T18:08:50.515Z,18.83
2023-12-31T18:11:16.933Z,29.58
2023-12-31T18:13:43.447Z,24.17
2023-12-31T18:16:10.206Z,25.98
2023-12-31T18:18:38.295Z,15.88
2023-12-31T18:21:05.908Z,5.07
2023-12-31T18:23:32.229Z,20.27
2023-12-31T18:25:58.615Z,16.75
2023-12-31T18:28:25.006Z,6.68
2023-12-31T18:30:51.343Z,3.10
2023-12-31T18:33:18.905Z,2.97
2023-12-31T18:35:46.146Z,4.00
2023-12-31T18:38:12.573Z,1.80
2023-12-31T18:40:39.817Z,2.83
2023-12-31T18:43:06.134Z,2.17
2023-12-31T18:45:32.484Z,1.80
2023-12-31T18:47:58.893Z,3.25
2023-12-31T18:50:25.480Z,1.83
2023-12-31T18:52:51.854Z,2.42
2023-12-31T18:55:18.402Z,2.40
2023-12-31T18:57:44.722Z,2.05
2023-12-31T19:00:11.533Z,2.33
2023-12-31T19:02:41.268Z,1.85
2023-12-31T19:05:07.701Z,3.13
2023-12-31T19:07:34.466Z,2.28
2023-12-31T19:10:00.907Z,2.50
2023-12-31T19:12:27.770Z,2.42
2023-12-31T19:14:54.421Z,2.35
2023-12-31T19:17:20.897Z,2.60
2023-12-31T19:19:47.331Z,2.35
2023-12-31T19:22:14.075Z,2.83
2023-12-31T19:24:40.426Z,2.20
2023-12-31T19:27:06.843Z,2.15
2023-12-31T19:29:33.160Z,2.15
2023-12-31T19:31:59.552Z,2.20
2023-12-31T19:34:26.047Z,1.80
2023-12-31T19:36:52.477Z,2.00
2023-12-31T19:39:19.221Z,2.13
2023-12-31T19:41:45.947Z,1.58
2023-12-31T19:44:28.033Z,2.40
2023-12-31T19:46:58.778Z,2.00
2023-12-31T19:49:25.611Z,2.10
2023-12-31T19:51:53.344Z,1.70
2023-12-31T19:54:19.764Z,1.80
2023-12-31T19:56:46.107Z,1.73
2023-12-31T19:59:13.756Z,1.80
2023-12-31T20:01:41.382Z,1.83
2023-12-31T20:04:07.903Z,1.98
2023-12-31T20:06:34.467Z,2.08
2023-12-31T20:09:01.048Z,2.15
2023-12-31T20:11:27.411Z,1.70
2023-12-31T20:13:53.691Z,2.03
2023-12-31T20:16:19.999Z,2.40
2023-12-31T20:18:46.370Z,1.80
2023-12-31T20:21:12.931Z,1.95
2023-12-31T20:23:40.374Z,2.20
2023-12-31T20:26:07.142Z,2.03
2023-12-31T20:28:33.493Z,2.25
2023-12-31T20:30:59.905Z,1.73
2023-12-31T20:33:26.606Z,3.45
2023-12-31T20:35:53.014Z,13.27
2023-12-31T20:38:19.324Z,24.60
2023-12-31T20:40:45.741Z,7.68
2023-12-31T20:43:12.064Z,7.85
2023-12-31T20:45:38.516Z,6.32
2023-12-31T20:48:05.170Z,10.13
2023-12-31T20:50:32.002Z,4.75
2023-12-31T20:52:58.407Z,4.03
2023-12-31T20:55:26.292Z,12.85
2023-12-31T20:57:52.644Z,10.23
2023-12-31T21:00:19.055Z,7.60
2023-12-31T21:02:45.373Z,6.78
2023-12-31T21:05:11.855Z,5.65
2023-12-31T21:07:39.465Z,10.18
2023-12-31T21:10:07.123Z,3.30
2023-12-31T21:12:33.641Z,6.80
2023-12-31T21:14:59.959Z,2.60
2023-12-31T21:17:26.398Z,2.20
2023-12-31T21:19:52.898Z,3.67
2023-12-31T21:22:19.222Z,3.83
2023-12-31T21:24:45.558Z,10.63
2023-12-31T21:27:11.839Z,6.85
2023-12-31T21:29:38.133Z,5.10
2023-12-31T21:32:05.065Z,5.18
2023-12-31T21:34:31.532Z,15.18
2023-12-31T21:36:58.092Z,10.63
2023-12-31T21:39:24.436Z,5.03
2023-12-31T21:41:50.888Z,8.30
2023-12-31T21:44:17.240Z,13.35
2023-12-31T21:46:43.645Z,17.08
2023-12-31T21:49:10.144Z,3.65
2023-12-31T21:51:36.504Z,44.20
2023-12-31T21:54:02.930Z,48.45
2023-12-31T21:56:47.417Z,46.67
2023-12-31T21:59:16.112Z,13.27
2023-12-31T22:01:42.634Z,12.38
2023-12-31T22:04:09.223Z,5.32
2023-12-31T22:06:35.568Z,4.88
2023-12-31T22:09:01.971Z,18.38
2023-12-31T22:11:28.529Z,16.45
2023-12-31T22:13:54.921Z,4.65
2023-12-31T22:16:21.425Z,2.50
2023-12-31T22:18:47.920Z,2.28
2023-12-31T22:21:14.533Z,8.48
2023-12-31T22:23:41.045Z,7.03
2023-12-31T22:26:07.479Z,3.17
2023-12-31T22:28:33.907Z,2.60
2023-12-31T22:31:00.381Z,3.90
2023-12-31T22:33:26.886Z,1.80
2023-12-31T22:35:53.622Z,2.15
2023-12-31T22:38:20.003Z,2.30
2023-12-31T22:40:46.338Z,2.42
2023-12-31T22:43:12.668Z,2.58
2023-12-31T22:45:40.417Z,1.92
2023-12-31T22:48:07.448Z,1.83
2023-12-31T22:50:34.085Z,2.13
2023-12-31T22:53:00.502Z,2.80
2023-12-31T22:55:27.039Z,2.20
2023-12-31T22:57:54.669Z,2.40
2023-12-31T23:00:21.688Z,2.03
2023-12-31T23:02:50.257Z,3.28
2023-12-31T23:05:16.840Z,2.67
2023-12-31T23:07:43.283Z,2.38
2023-12-31T23:10:09.783Z,2.05
2023-12-31T23:12:36.161Z,2.00
2023-12-31T23:15:02.588Z,2.13
2023-12-31T23:17:28.975Z,2.35
2023-12-31T23:19:55.433Z,1.98
2023-12-31T23:22:22.075Z,2.03
2023-12-31T23:24:48.851Z,2.22
2023-12-31T23:27:15.207Z,2.45
2023-12-31T23:29:43.706Z,2.15
2023-12-31T23:32:11.621Z,2.08
2023-12-31T23:34:38.316Z,2.15
2023-12-31T23:37:09.387Z,2.42
2023-12-31T23:39:36.810Z,2.28
2023-12-31T23:42:03.584Z,2.47
2023-12-31T23:44:31.216Z,2.60
2023-12-31T23:46:58.166Z,2.75
2023-12-31T23:49:24.698Z,5.10
2023-12-31T23:51:51.051Z,3.00
2023-12-31T23:54:17.785Z,2.72
2023-12-31T23:56:44.097Z,2.83
2023-12-31T23:59:10.910Z,2.65
